createdAt,value
2022-09-02T00:01:25.434Z,13.23
2022-09-02T00:03:55.461Z,13.17
2022-09-02T00:06:22.193Z,13.10
2022-09-02T00:08:48.883Z,13.00
2022-09-02T00:11:18.569Z,13.09
2022-09-02T00:13:45.710Z,13.06
2022-09-02T00:16:12.997Z,12.93
2022-09-02T00:18:40.382Z,12.84
2022-09-02T00:21:14.204Z,12.68
2022-09-02T00:23:43.110Z,12.73
2022-09-02T00:26:09.999Z,12.69
2022-09-02T00:28:36.741Z,12.71
2022-09-02T00:31:03.869Z,12.74
2022-09-02T00:33:31.673Z,12.60
2022-09-02T00:36:02.822Z,12.48
2022-09-02T00:38:33.748Z,12.49
2022-09-02T00:41:02.532Z,12.62
2022-09-02T00:43:42.175Z,12.53
2022-09-02T00:46:09.680Z,12.47
2022-09-02T00:48:40.583Z,12.28
2022-09-02T00:51:09.791Z,12.31
2022-09-02T00:53:39.410Z,12.31
2022-09-02T00:56:13.077Z,12.19
2022-09-02T00:58:40.058Z,12.20
2022-09-02T01:01:06.792Z,12.23
2022-09-02T01:03:33.909Z,12.42
2022-09-02T01:06:02.076Z,12.29
2022-09-02T01:08:34.637Z,12.25
2022-09-02T01:11:02.705Z,12.40
2022-09-02T01:13:39.723Z,12.38
2022-09-02T01:16:23.474Z,12.42
2022-09-02T01:18:53.346Z,12.44
2022-09-02T01:21:20.441Z,12.30
2022-09-02T01:23:48.173Z,12.38
2022-09-02T01:26:14.665Z,12.55
2022-09-02T01:28:41.117Z,12.52
2022-09-02T01:31:07.833Z,12.63
2022-09-02T01:33:34.498Z,12.64
2022-09-02T01:36:04.135Z,12.78
2022-09-02T01:38:31.224Z,12.79
2022-09-02T01:40:58.211Z,12.73
2022-09-02T01:43:27.422Z,12.95
2022-09-02T01:45:56.436Z,12.98
2022-09-02T01:48:23.458Z,13.03
2022-09-02T01:50:55.412Z,12.95
2022-09-02T01:53:22.333Z,12.79
2022-09-02T01:55:49.067Z,12.84
2022-09-02T01:58:15.589Z,12.83
2022-09-02T02:00:42.302Z,12.84
2022-09-02T02:03:08.838Z,12.67
2022-09-02T02:05:36.103Z,12.80
2022-09-02T02:08:03.180Z,12.79
2022-09-02T02:10:30.423Z,12.70
2022-09-02T02:12:56.875Z,12.78
2022-09-02T02:17:52.029Z,12.78
2022-09-02T02:20:20.229Z,12.85
2022-09-02T02:22:47.705Z,12.74
2022-09-02T02:25:15.808Z,12.80
2022-09-02T02:27:43.620Z,12.90
2022-09-02T02:30:11.181Z,12.87
2022-09-02T02:32:37.871Z,12.88
2022-09-02T02:35:04.631Z,12.88
2022-09-02T02:37:31.192Z,12.92
2022-09-02T02:39:57.600Z,13.02
2022-09-02T02:42:24.035Z,12.98
2022-09-02T02:44:51.073Z,12.96
2022-09-02T02:47:18.153Z,13.01
2022-09-02T02:49:44.819Z,13.12
2022-09-02T02:52:12.490Z,13.02
2022-09-02T02:54:39.445Z,12.92
2022-09-02T02:57:07.318Z,12.89
2022-09-02T02:59:34.310Z,12.74
2022-09-02T03:02:01.028Z,12.84
2022-09-02T03:04:27.477Z,12.78
2022-09-02T03:06:53.943Z,12.81
2022-09-02T03:09:20.476Z,12.82
2022-09-02T03:11:47.974Z,12.90
2022-09-02T03:14:14.607Z,12.70
2022-09-02T03:16:41.632Z,12.65
2022-09-02T03:19:08.277Z,12.47
2022-09-02T03:21:39.089Z,12.40
2022-09-02T03:24:06.185Z,12.53
2022-09-02T03:26:32.808Z,12.34
2022-09-02T03:28:59.547Z,12.27
2022-09-02T03:31:28.296Z,12.42
2022-09-02T03:33:55.489Z,12.23
2022-09-02T03:36:28.142Z,12.21
2022-09-02T03:38:55.100Z,12.33
2022-09-02T03:41:22.054Z,12.47
2022-09-02T03:43:49.163Z,12.51
2022-09-02T03:46:15.709Z,12.66
2022-09-02T03:48:42.356Z,12.65
2022-09-02T03:51:08.846Z,12.39
2022-09-02T03:53:35.523Z,12.21
2022-09-02T03:56:07.204Z,11.99
2022-09-02T03:58:35.241Z,12.00
2022-09-02T04:01:01.787Z,11.86
2022-09-02T04:03:28.507Z,11.74
2022-09-02T04:05:54.940Z,11.63
2022-09-02T04:08:22.003Z,11.67
2022-09-02T04:10:49.520Z,11.87
2022-09-02T04:13:17.012Z,11.89
2022-09-02T04:15:47.849Z,11.90
2022-09-02T04:18:17.243Z,11.96
2022-09-02T04:20:44.591Z,11.94
2022-09-02T04:23:11.407Z,12.11
2022-09-02T04:25:43.198Z,12.17
2022-09-02T04:28:10.558Z,12.11
2022-09-02T04:30:39.216Z,12.23
2022-09-02T04:33:05.709Z,12.16
2022-09-02T04:35:32.305Z,12.14
2022-09-02T04:37:59.520Z,12.07
2022-09-02T04:40:26.102Z,12.18
2022-09-02T04:42:55.499Z,12.28
2022-09-02T04:45:23.152Z,12.29
2022-09-02T04:47:53.437Z,12.25
2022-09-02T04:50:20.062Z,12.33
2022-09-02T04:52:46.447Z,12.44
2022-09-02T04:55:12.844Z,12.54
2022-09-02T04:57:39.408Z,12.65
2022-09-02T05:00:07.450Z,12.41
2022-09-02T05:02:34.108Z,12.36
2022-09-02T05:05:00.745Z,12.45
2022-09-02T05:07:27.196Z,12.43
2022-09-02T05:09:59.009Z,12.54
2022-09-02T05:12:27.710Z,12.65
2022-09-02T05:14:56.754Z,12.75
2022-09-02T05:17:23.545Z,12.84
2022-09-02T05:19:50.003Z,12.79
2022-09-02T05:22:16.516Z,12.79
2022-09-02T05:24:43.321Z,12.87
2022-09-02T05:27:10.006Z,12.77
2022-09-02T05:29:36.496Z,12.54
2022-09-02T05:32:04.186Z,12.93
2022-09-02T05:34:30.637Z,13.00
2022-09-02T05:36:57.259Z,12.97
2022-09-02T05:39:25.296Z,13.02
2022-09-02T05:41:51.743Z,13.23
2022-09-02T05:44:18.215Z,13.16
2022-09-02T05:46:48.734Z,13.18
2022-09-02T05:49:18.726Z,13.14
2022-09-02T05:51:52.951Z,13.43
2022-09-02T05:54:22.088Z,13.35
2022-09-02T05:56:53.677Z,13.32
2022-09-02T05:59:21.724Z,13.37
2022-09-02T06:01:48.974Z,13.33
2022-09-02T06:04:16.444Z,13.25
2022-09-02T06:06:43.187Z,13.52
2022-09-02T06:09:12.523Z,13.64
2022-09-02T06:11:48.863Z,13.44
2022-09-02T06:14:19.441Z,13.59
2022-09-02T06:16:46.901Z,13.60
2022-09-02T06:19:17.696Z,13.88
2022-09-02T06:21:46.911Z,13.74
2022-09-02T06:24:14.004Z,14.09
2022-09-02T06:26:42.079Z,14.20
2022-09-02T06:29:10.268Z,14.16
2022-09-02T06:31:36.740Z,14.00
2022-09-02T06:34:04.647Z,14.38
2022-09-02T06:36:31.462Z,13.97
2022-09-02T06:38:59.865Z,14.48
2022-09-02T06:41:30.615Z,14.62
2022-09-02T06:44:00.059Z,14.72
2022-09-02T06:46:31.052Z,14.99
2022-09-02T06:48:57.592Z,15.35
2022-09-02T06:51:30.543Z,15.41
2022-09-02T06:53:57.721Z,15.88
2022-09-02T06:56:26.669Z,15.81
2022-09-02T06:58:53.733Z,15.81
2022-09-02T07:01:31.727Z,15.19
2022-09-02T07:04:21.687Z,16.56
2022-09-02T07:06:51.741Z,17.14
2022-09-02T07:09:22.983Z,16.91
2022-09-02T07:11:50.576Z,16.79
2022-09-02T07:14:20.527Z,16.83
2022-09-02T07:16:50.045Z,17.39
2022-09-02T07:19:20.621Z,17.41
2022-09-02T07:21:49.376Z,18.82
2022-09-02T07:24:16.741Z,19.60
2022-09-02T07:26:43.964Z,19.02
2022-09-02T07:29:11.424Z,19.47
2022-09-02T07:31:40.702Z,19.21
2022-09-02T07:34:08.356Z,18.85
2022-09-02T07:36:38.088Z,20.22
2022-09-02T07:39:07.227Z,21.17
2022-09-02T07:41:34.233Z,21.11
2022-09-02T07:44:00.762Z,21.08
2022-09-02T07:46:29.958Z,20.76
2022-09-02T07:48:57.029Z,20.87
2022-09-02T07:51:23.585Z,20.92
2022-09-02T07:53:54.326Z,21.98
2022-09-02T07:56:20.890Z,21.69
2022-09-02T07:58:47.401Z,21.29
2022-09-02T08:01:14.782Z,22.18
2022-09-02T08:03:44.376Z,21.74
2022-09-02T08:06:12.402Z,21.79
2022-09-02T08:08:38.889Z,22.55
2022-09-02T08:11:06.459Z,21.89
2022-09-02T08:13:33.410Z,21.98
2022-09-02T08:16:00.577Z,22.48
2022-09-02T08:18:27.016Z,22.42
2022-09-02T08:20:53.621Z,22.52
2022-09-02T08:23:36.103Z,22.84
2022-09-02T08:26:03.835Z,21.11
2022-09-02T08:28:32.015Z,21.98
2022-09-02T08:30:59.466Z,22.28
2022-09-02T08:33:26.212Z,23.25
2022-09-02T08:35:52.616Z,24.55
2022-09-02T08:38:19.135Z,23.80
2022-09-02T08:40:45.698Z,23.85
2022-09-02T08:43:42.386Z,23.24
2022-09-02T08:46:12.365Z,24.70
2022-09-02T08:48:59.293Z,25.13
2022-09-02T08:51:52.827Z,25.15
2022-09-02T08:54:44.143Z,23.33
2022-09-02T08:57:11.488Z,24.83
2022-09-02T09:02:32.803Z,25.78
2022-09-02T09:05:08.170Z,25.20
2022-09-02T09:08:03.081Z,25.29
2022-09-02T09:10:38.377Z,22.65
2022-09-02T09:13:31.178Z,25.04
2022-09-02T09:16:09.837Z,25.53
2022-09-02T09:18:44.563Z,25.69
2022-09-02T09:21:11.784Z,25.89
2022-09-02T09:23:40.504Z,25.84
2022-09-02T09:26:12.747Z,26.37
2022-09-02T09:28:42.227Z,25.63
2022-09-02T09:31:12.331Z,24.73
2022-09-02T09:33:38.923Z,26.54
2022-09-02T09:36:05.775Z,27.11
2022-09-02T09:38:36.644Z,27.40
2022-09-02T09:41:18.181Z,26.11
2022-09-02T09:43:45.633Z,26.80
2022-09-02T09:46:27.621Z,27.83
2022-09-02T09:48:54.726Z,26.88
2022-09-02T09:51:21.199Z,26.63
2022-09-02T09:53:47.703Z,26.80
2022-09-02T09:56:14.021Z,26.23
2022-09-02T09:58:40.320Z,25.35
2022-09-02T10:01:30.298Z,25.67
2022-09-02T10:04:09.079Z,27.60
2022-09-02T10:06:44.467Z,25.82
2022-09-02T10:09:14.025Z,26.63
2022-09-02T10:11:57.749Z,25.93
2022-09-02T10:14:27.819Z,27.77
2022-09-02T10:17:10.891Z,25.75
2022-09-02T10:19:55.321Z,27.41
2022-09-02T10:22:58.733Z,26.31
2022-09-02T10:26:04.454Z,27.66
2022-09-02T10:28:55.156Z,27.33
2022-09-02T10:31:33.816Z,29.15
2022-09-02T10:34:21.794Z,25.89
2022-09-02T10:37:15.231Z,28.09
2022-09-02T10:40:09.449Z,30.46
2022-09-02T10:42:48.089Z,28.49
2022-09-02T10:45:36.115Z,27.75
2022-09-02T10:48:20.670Z,28.17
2022-09-02T10:51:24.784Z,29.19
2022-09-02T10:53:59.602Z,28.70
2022-09-02T10:56:33.894Z,25.80
2022-09-02T10:59:30.792Z,26.97
2022-09-02T11:02:08.610Z,27.47
2022-09-02T11:04:40.354Z,26.83
2022-09-02T11:07:10.785Z,26.55
2022-09-02T11:09:52.891Z,25.18
2022-09-02T11:12:28.242Z,26.43
2022-09-02T11:15:16.080Z,26.16
2022-09-02T11:18:00.011Z,24.30
2022-09-02T11:20:35.724Z,24.39
2022-09-02T11:23:42.827Z,26.10
2022-09-02T11:26:19.831Z,25.06
2022-09-02T11:29:11.089Z,24.72
2022-09-02T11:31:47.786Z,24.30
2022-09-02T11:34:14.188Z,24.43
2022-09-02T11:36:41.616Z,24.37
2022-09-02T11:39:51.599Z,23.53
2022-09-02T11:42:30.769Z,24.30
2022-09-02T11:45:39.381Z,24.15
2022-09-02T11:48:23.088Z,25.32
2022-09-02T11:51:01.712Z,24.31
2022-09-02T11:53:37.510Z,23.14
2022-09-02T11:56:11.889Z,23.84
2022-09-02T11:58:53.327Z,25.44
2022-09-02T12:01:31.612Z,25.47
2022-09-02T12:07:09.513Z,27.44
2022-09-02T12:09:51.358Z,26.76
2022-09-02T12:12:36.501Z,24.77
2022-09-02T12:15:06.573Z,25.73
2022-09-02T12:17:56.505Z,27.40
2022-09-02T12:20:43.736Z,26.93
2022-09-02T12:23:50.205Z,26.13
2022-09-02T12:26:18.243Z,25.20
2022-09-02T12:28:47.689Z,23.22
2022-09-02T12:31:22.539Z,23.13
2022-09-02T12:33:49.961Z,24.36
2022-09-02T12:36:40.120Z,24.80
2022-09-02T12:39:25.041Z,23.99
2022-09-02T12:41:57.901Z,23.86
2022-09-02T12:44:24.368Z,23.25
2022-09-02T12:46:58.738Z,24.64
2022-09-02T12:49:45.966Z,25.15
2022-09-02T12:52:40.921Z,25.10
2022-09-02T12:55:13.334Z,25.37
2022-09-02T12:57:46.090Z,26.94
2022-09-02T13:00:31.627Z,27.71
2022-09-02T13:03:37.590Z,27.94
2022-09-02T13:06:22.595Z,25.40
2022-09-02T13:09:14.163Z,24.55
2022-09-02T13:12:02.271Z,26.30
2022-09-02T13:14:55.189Z,27.15
2022-09-02T13:17:59.223Z,25.05
2022-09-02T13:20:59.594Z,24.01
2022-09-02T13:23:31.732Z,24.32
2022-09-02T13:26:27.623Z,24.51
2022-09-02T13:29:16.112Z,25.53
2022-09-02T13:31:42.828Z,24.88
2022-09-02T13:34:13.785Z,23.95
2022-09-02T13:36:45.904Z,24.16
2022-09-02T13:39:26.890Z,24.54
2022-09-02T13:41:54.362Z,24.14
2022-09-02T13:44:26.682Z,24.21
2022-09-02T13:46:58.868Z,24.17
2022-09-02T13:49:37.849Z,23.76
2022-09-02T13:52:08.263Z,23.33
2022-09-02T13:54:43.260Z,24.12
2022-09-02T13:57:13.888Z,24.41
2022-09-02T13:59:48.036Z,24.14
2022-09-02T14:02:41.003Z,23.78
2022-09-02T14:05:22.942Z,24.06
2022-09-02T14:07:54.487Z,24.25
2022-09-02T14:10:24.628Z,24.50
2022-09-02T14:12:51.713Z,24.12
2022-09-02T14:15:25.746Z,23.71
2022-09-02T14:18:10.239Z,22.93
2022-09-02T14:20:52.601Z,23.36
2022-09-02T14:23:19.271Z,23.77
2022-09-02T14:25:52.695Z,23.31
2022-09-02T14:28:26.968Z,23.27
2022-09-02T14:31:06.200Z,23.31
2022-09-02T14:33:35.654Z,23.61
2022-09-02T14:36:31.531Z,23.54
2022-09-02T14:39:10.292Z,23.08
2022-09-02T14:41:48.736Z,23.15
2022-09-02T14:44:22.878Z,23.31
2022-09-02T14:46:54.523Z,23.04
2022-09-02T14:49:24.919Z,23.22
2022-09-02T14:51:54.274Z,23.22
2022-09-02T14:54:42.339Z,23.21
2022-09-02T14:57:20.804Z,23.24
2022-09-02T14:59:48.717Z,23.19
2022-09-02T15:02:27.332Z,22.66
2022-09-02T15:04:54.607Z,22.82
2022-09-02T15:07:21.419Z,23.12
2022-09-02T15:09:51.248Z,22.89
2022-09-02T15:12:24.605Z,22.99
2022-09-02T15:14:54.071Z,22.61
2022-09-02T15:17:21.156Z,22.69
2022-09-02T15:19:47.906Z,22.44
2022-09-02T15:22:15.756Z,22.42
2022-09-02T15:24:43.495Z,22.42
2022-09-02T15:27:11.270Z,22.26
2022-09-02T15:29:37.842Z,22.27
2022-09-02T15:32:04.307Z,22.55
2022-09-02T15:34:31.594Z,22.23
2022-09-02T15:36:58.421Z,22.14
2022-09-02T15:39:26.218Z,22.15
2022-09-02T15:41:57.048Z,22.05
2022-09-02T15:44:25.787Z,22.37
2022-09-02T15:46:53.638Z,22.42
2022-09-02T15:49:21.749Z,22.11
2022-09-02T15:51:49.826Z,22.13
2022-09-02T15:54:18.570Z,22.03
2022-09-02T15:56:46.831Z,22.10
2022-09-02T15:59:18.049Z,22.04
2022-09-02T16:01:46.588Z,22.18
2022-09-02T16:04:13.968Z,22.20
2022-09-02T16:06:42.689Z,22.27
2022-09-02T16:09:11.462Z,22.09
2022-09-02T16:11:43.663Z,22.10
2022-09-02T16:14:10.951Z,22.08
2022-09-02T16:16:38.075Z,21.97
2022-09-02T16:19:07.091Z,22.01
2022-09-02T16:21:33.674Z,21.98
2022-09-02T16:24:00.124Z,21.85
2022-09-02T16:26:35.307Z,21.83
2022-09-02T16:29:06.912Z,21.89
2022-09-02T16:31:35.958Z,21.78
2022-09-02T16:34:07.436Z,21.62
2022-09-02T16:36:37.226Z,21.57
2022-09-02T16:39:04.976Z,21.57
2022-09-02T16:41:38.573Z,21.61
2022-09-02T16:44:11.256Z,21.55
2022-09-02T16:46:40.598Z,21.49
2022-09-02T16:49:07.934Z,21.53
2022-09-02T16:51:34.640Z,21.50
2022-09-02T16:54:04.164Z,21.40
2022-09-02T16:56:31.713Z,21.36
2022-09-02T16:59:03.746Z,21.24
2022-09-02T17:01:32.514Z,21.14
2022-09-02T17:04:00.425Z,21.15
2022-09-02T17:06:28.107Z,21.22
2022-09-02T17:08:54.727Z,21.19
2022-09-02T17:11:24.655Z,21.13
2022-09-02T17:13:54.395Z,21.00
2022-09-02T17:16:23.886Z,20.92
2022-09-02T17:18:51.206Z,20.94
2022-09-02T17:21:24.562Z,20.85
2022-09-02T17:23:52.071Z,20.81
2022-09-02T17:26:19.952Z,20.82
2022-09-02T17:28:50.850Z,20.71
2022-09-02T17:31:30.281Z,20.72
2022-09-02T17:33:58.974Z,20.63
2022-09-02T17:36:28.758Z,20.60
2022-09-02T17:38:57.259Z,20.56
2022-09-02T17:41:43.707Z,20.51
2022-09-02T17:44:11.753Z,20.43
2022-09-02T17:46:38.317Z,20.32
2022-09-02T17:49:16.936Z,20.29
2022-09-02T17:51:44.530Z,20.23
2022-09-02T17:54:12.073Z,20.20
2022-09-02T17:56:51.200Z,20.15
2022-09-02T17:59:39.577Z,20.08
2022-09-02T18:02:34.283Z,19.98
2022-09-02T18:05:15.478Z,19.96
2022-09-02T18:07:53.420Z,19.88
2022-09-02T18:10:20.382Z,19.82
2022-09-02T18:12:46.841Z,19.77
2022-09-02T18:15:18.534Z,19.72
2022-09-02T18:17:48.724Z,19.68
2022-09-02T18:20:43.466Z,19.61
2022-09-02T18:23:16.934Z,19.56
2022-09-02T18:26:02.115Z,19.44
2022-09-02T18:28:54.861Z,19.39
2022-09-02T18:31:58.924Z,19.29
2022-09-02T18:34:58.948Z,19.22
2022-09-02T18:37:48.272Z,19.18
2022-09-02T18:40:26.532Z,19.15
2022-09-02T18:43:09.074Z,19.07
2022-09-02T18:45:46.637Z,18.96
2022-09-02T18:48:15.928Z,18.98
2022-09-02T18:50:51.305Z,18.91
2022-09-02T18:53:22.348Z,18.88
2022-09-02T18:55:49.518Z,18.80
2022-09-02T18:58:34.964Z,18.78
2022-09-02T19:01:24.002Z,18.75
2022-09-02T19:03:50.773Z,18.64
2022-09-02T19:06:23.234Z,18.65
2022-09-02T19:08:58.073Z,18.65
2022-09-02T19:11:25.810Z,18.58
2022-09-02T19:13:55.512Z,18.57
2022-09-02T19:16:28.032Z,18.56
2022-09-02T19:18:54.918Z,18.47
2022-09-02T19:21:46.095Z,18.46
2022-09-02T19:24:16.900Z,18.48
2022-09-02T19:26:44.789Z,18.36
2022-09-02T19:29:15.513Z,18.36
2022-09-02T19:31:43.609Z,18.37
2022-09-02T19:34:10.690Z,18.34
2022-09-02T19:36:41.914Z,18.32
2022-09-02T19:39:08.288Z,18.34
2022-09-02T19:41:34.986Z,18.26
2022-09-02T19:44:01.466Z,18.30
2022-09-02T19:47:11.714Z,18.23
2022-09-02T19:49:14.384Z,18.22
2022-09-02T19:51:40.902Z,18.25
2022-09-02T19:54:08.545Z,18.19
2022-09-02T19:56:34.986Z,18.10
2022-09-02T19:59:01.507Z,18.02
2022-09-02T20:01:27.941Z,18.13
2022-09-02T20:03:54.353Z,18.09
2022-09-02T20:06:20.819Z,18.13
2022-09-02T20:08:47.712Z,18.01
2022-09-02T20:11:14.821Z,17.93
2022-09-02T20:13:41.874Z,17.76
2022-09-02T20:16:20.292Z,17.70
2022-09-02T20:18:48.724Z,17.70
2022-09-02T20:21:27.594Z,17.74
2022-09-02T20:23:58.186Z,17.73
2022-09-02T20:26:39.775Z,17.72
2022-09-02T20:29:18.127Z,17.76
2022-09-02T20:31:52.597Z,17.72
2022-09-02T20:34:34.438Z,17.76
2022-09-02T20:37:14.825Z,17.76
2022-09-02T20:40:15.238Z,17.65
2022-09-02T20:43:17.999Z,17.59
2022-09-02T20:46:06.120Z,17.54
2022-09-02T20:48:44.553Z,17.39
2022-09-02T20:51:36.991Z,17.36
2022-09-02T20:54:25.037Z,17.36
2022-09-02T20:57:05.010Z,17.22
2022-09-02T20:59:57.092Z,17.22
2022-09-02T21:02:29.365Z,17.17
2022-09-02T21:05:09.197Z,17.09
2022-09-02T21:07:42.737Z,17.01
2022-09-02T21:10:29.643Z,16.93
2022-09-02T21:13:09.881Z,16.86
2022-09-02T21:15:51.600Z,16.81
2022-09-02T21:18:29.786Z,16.78
2022-09-02T21:21:03.522Z,16.67
2022-09-02T21:23:29.838Z,16.61
2022-09-02T21:26:00.002Z,16.57
2022-09-02T21:28:38.525Z,16.56
2022-09-02T21:31:17.398Z,16.51
2022-09-02T21:33:45.487Z,16.49
2022-09-02T21:36:18.321Z,16.45
2022-09-02T21:38:46.035Z,16.40
2022-09-02T21:41:32.897Z,16.38
2022-09-02T21:44:14.298Z,16.33
2022-09-02T21:46:46.890Z,16.27
2022-09-02T21:49:37.294Z,16.29
2022-09-02T21:52:26.695Z,16.23
2022-09-02T21:55:08.893Z,16.11
2022-09-02T21:57:57.004Z,16.13
2022-09-02T22:00:23.925Z,16.10
2022-09-02T22:03:29.419Z,16.00
2022-09-02T22:06:11.109Z,15.95
2022-09-02T22:08:47.541Z,15.88
2022-09-02T22:11:26.606Z,15.87
2022-09-02T22:13:58.067Z,15.79
2022-09-02T22:16:41.229Z,15.76
2022-09-02T22:19:08.303Z,15.71
2022-09-02T22:21:48.212Z,15.65
2022-09-02T22:24:16.590Z,15.62
2022-09-02T22:26:52.425Z,15.57
2022-09-02T22:29:36.612Z,15.55
2022-09-02T22:32:08.308Z,15.51
2022-09-02T22:34:42.493Z,15.43
2022-09-02T22:37:18.679Z,15.39
2022-09-02T22:39:53.008Z,15.30
2022-09-02T22:42:33.335Z,15.28
2022-09-02T22:45:26.171Z,15.19
2022-09-02T22:48:18.486Z,15.10
2022-09-02T22:51:09.329Z,15.08
2022-09-02T22:53:35.732Z,15.00
2022-09-02T22:56:08.118Z,14.95
2022-09-02T22:59:09.352Z,14.93
2022-09-02T23:01:45.788Z,14.82
2022-09-02T23:04:39.685Z,14.82
2022-09-02T23:07:07.261Z,14.75
2022-09-02T23:09:37.135Z,14.72
2022-09-02T23:12:25.179Z,14.76
2022-09-02T23:15:13.752Z,14.61
2022-09-02T23:18:01.464Z,14.54
2022-09-02T23:20:50.647Z,14.53
2022-09-02T23:23:22.809Z,14.46
2022-09-02T23:26:08.310Z,14.40
2022-09-02T23:29:07.293Z,14.27
2022-09-02T23:31:54.070Z,14.31
2022-09-02T23:34:39.684Z,14.21
2022-09-02T23:37:14.988Z,14.20
2022-09-02T23:39:53.583Z,14.13
2022-09-02T23:42:20.676Z,14.07
2022-09-02T23:44:48.055Z,14.11
2022-09-02T23:47:44.943Z,14.11
2022-09-02T23:50:49.408Z,14.01
2022-09-02T23:53:23.593Z,13.96
2022-09-02T23:56:05.064Z,13.98
2022-09-02T23:59:08.983Z,13.90
